sensor_id;sensor_type;location;lat;lon;timestamp;temperature;humidity
23783;DHT22;12071;50.850;4.446;2023-04-03T00:01:16;4.40;1.00
23783;DHT22;12071;50.850;4.446;2023-04-03T00:03:42;4.20;1.00
23783;DHT22;12071;50.850;4.446;2023-04-03T00:06:08;4.10;1.00
23783;DHT22;12071;50.850;4.446;2023-04-03T00:08:36;4.20;1.00
23783;DHT22;12071;50.850;4.446;2023-04-03T00:11:02;4.20;1.00
23783;DHT22;12071;50.850;4.446;2023-04-03T00:13:28;4.10;7.60
23783;DHT22;12071;50.850;4.446;2023-04-03T00:15:53;4.00;13.40
23783;DHT22;12071;50.850;4.446;2023-04-03T00:18:19;4.20;24.30
23783;DHT22;12071;50.850;4.446;2023-04-03T00:20:45;4.10;2.20
23783;DHT22;12071;50.850;4.446;2023-04-03T00:23:11;4.10;1.00
23783;DHT22;12071;50.850;4.446;2023-04-03T00:25:36;3.90;1.00
23783;DHT22;12071;50.850;4.446;2023-04-03T00:28:04;3.90;12.60
23783;DHT22;12071;50.850;4.446;2023-04-03T00:30:30;3.70;23.40
23783;DHT22;12071;50.850;4.446;2023-04-03T00:32:56;3.70;65.50
23783;DHT22;12071;50.850;4.446;2023-04-03T00:35:23;3.70;89.50
23783;DHT22;12071;50.850;4.446;2023-04-03T00:37:51;3.60;99.90
23783;DHT22;12071;50.850;4.446;2023-04-03T00:40:18;3.60;99.90
23783;DHT22;12071;50.850;4.446;2023-04-03T00:42:46;3.60;99.90
23783;DHT22;12071;50.850;4.446;2023-04-03T00:47:39;3.50;99.90
23783;DHT22;12071;50.850;4.446;2023-04-03T00:50:06;3.50;99.90
23783;DHT22;12071;50.850;4.446;2023-04-03T00:52:32;3.50;99.90
23783;DHT22;12071;50.850;4.446;2023-04-03T00:55:02;3.40;99.90
23783;DHT22;12071;50.850;4.446;2023-04-03T00:57:30;3.40;99.90
23783;DHT22;12071;50.850;4.446;2023-04-03T01:00:02;3.40;99.90
23783;DHT22;12071;50.850;4.446;2023-04-03T01:02:29;3.30;99.90
23783;DHT22;12071;50.850;4.446;2023-04-03T01:04:55;3.30;99.90
23783;DHT22;12071;50.850;4.446;2023-04-03T01:07:23;3.30;99.90
23783;DHT22;12071;50.850;4.446;2023-04-03T01:09:53;3.40;99.90
23783;DHT22;12071;50.850;4.446;2023-04-03T01:12:34;3.50;99.90
23783;DHT22;12071;50.850;4.446;2023-04-03T01:15:11;3.70;99.90
23783;DHT22;12071;50.850;4.446;2023-04-03T01:22:56;3.60;99.90
23783;DHT22;12071;50.850;4.446;2023-04-03T01:25:23;3.60;96.30
23783;DHT22;12071;50.850;4.446;2023-04-03T01:27:49;3.50;99.40
23783;DHT22;12071;50.850;4.446;2023-04-03T01:30:17;3.50;97.50
23783;DHT22;12071;50.850;4.446;2023-04-03T01:32:43;3.40;99.90
23783;DHT22;12071;50.850;4.446;2023-04-03T01:35:10;3.30;99.90
23783;DHT22;12071;50.850;4.446;2023-04-03T01:37:36;3.20;99.90
23783;DHT22;12071;50.850;4.446;2023-04-03T01:40:02;3.10;99.90
23783;DHT22;12071;50.850;4.446;2023-04-03T01:42:28;3.10;99.90
23783;DHT22;12071;50.850;4.446;2023-04-03T01:44:54;3.10;99.90
23783;DHT22;12071;50.850;4.446;2023-04-03T01:47:21;3.10;99.90
23783;DHT22;12071;50.850;4.446;2023-04-03T01:49:46;3.20;99.90
23783;DHT22;12071;50.850;4.446;2023-04-03T01:52:12;3.10;99.90
23783;DHT22;12071;50.850;4.446;2023-04-03T01:54:37;3.10;99.90
23783;DHT22;12071;50.850;4.446;2023-04-03T01:57:03;3.10;99.90
23783;DHT22;12071;50.850;4.446;2023-04-03T01:59:29;3.00;99.90
23783;DHT22;12071;50.850;4.446;2023-04-03T02:01:54;3.10;99.90
23783;DHT22;12071;50.850;4.446;2023-04-03T02:04:20;3.00;99.90
23783;DHT22;12071;50.850;4.446;2023-04-03T02:06:46;2.90;99.90
23783;DHT22;12071;50.850;4.446;2023-04-03T02:09:11;2.80;99.90
23783;DHT22;12071;50.850;4.446;2023-04-03T02:11:37;2.80;99.90
23783;DHT22;12071;50.850;4.446;2023-04-03T02:14:03;2.70;99.90
23783;DHT22;12071;50.850;4.446;2023-04-03T02:16:28;2.80;99.90
23783;DHT22;12071;50.850;4.446;2023-04-03T02:18:54;2.80;99.90
23783;DHT22;12071;50.850;4.446;2023-04-03T02:21:20;2.80;99.90
23783;DHT22;12071;50.850;4.446;2023-04-03T02:23:45;2.80;99.90
23783;DHT22;12071;50.850;4.446;2023-04-03T02:26:13;2.80;99.90
23783;DHT22;12071;50.850;4.446;2023-04-03T02:28:39;2.70;99.90
23783;DHT22;12071;50.850;4.446;2023-04-03T02:31:07;2.80;99.90
23783;DHT22;12071;50.850;4.446;2023-04-03T02:33:33;2.60;99.90
23783;DHT22;12071;50.850;4.446;2023-04-03T02:35:59;2.70;99.90
23783;DHT22;12071;50.850;4.446;2023-04-03T02:38:25;2.70;99.90
23783;DHT22;12071;50.850;4.446;2023-04-03T02:40:51;2.60;99.90
23783;DHT22;12071;50.850;4.446;2023-04-03T02:43:17;2.50;99.90
23783;DHT22;12071;50.850;4.446;2023-04-03T02:45:43;2.50;99.90
23783;DHT22;12071;50.850;4.446;2023-04-03T02:48:08;2.50;99.90
23783;DHT22;12071;50.850;4.446;2023-04-03T02:50:34;2.40;99.90
23783;DHT22;12071;50.850;4.446;2023-04-03T02:53:00;2.50;99.90
23783;DHT22;12071;50.850;4.446;2023-04-03T02:55:25;2.60;99.90
23783;DHT22;12071;50.850;4.446;2023-04-03T02:57:51;2.50;99.90
23783;DHT22;12071;50.850;4.446;2023-04-03T03:00:17;2.60;99.90
23783;DHT22;12071;50.850;4.446;2023-04-03T03:02:43;2.50;99.90
23783;DHT22;12071;50.850;4.446;2023-04-03T03:05:08;2.50;99.90
23783;DHT22;12071;50.850;4.446;2023-04-03T03:07:34;2.60;99.90
23783;DHT22;12071;50.850;4.446;2023-04-03T03:10:00;2.60;99.90
23783;DHT22;12071;50.850;4.446;2023-04-03T03:12:25;2.60;99.90
23783;DHT22;12071;50.850;4.446;2023-04-03T03:14:51;2.50;99.90
23783;DHT22;12071;50.850;4.446;2023-04-03T03:17:17;2.60;99.90
23783;DHT22;12071;50.850;4.446;2023-04-03T03:19:43;2.50;99.90
23783;DHT22;12071;50.850;4.446;2023-04-03T03:22:09;2.50;99.90
23783;DHT22;12071;50.850;4.446;2023-04-03T03:24:34;2.50;99.90
23783;DHT22;12071;50.850;4.446;2023-04-03T03:27:00;2.50;99.90
23783;DHT22;12071;50.850;4.446;2023-04-03T03:29:26;2.60;99.90
23783;DHT22;12071;50.850;4.446;2023-04-03T03:31:51;2.60;99.90
23783;DHT22;12071;50.850;4.446;2023-04-03T03:34:17;2.50;99.90
23783;DHT22;12071;50.850;4.446;2023-04-03T03:36:43;2.40;99.90
23783;DHT22;12071;50.850;4.446;2023-04-03T03:39:09;2.30;99.90
23783;DHT22;12071;50.850;4.446;2023-04-03T03:41:35;2.30;99.90
23783;DHT22;12071;50.850;4.446;2023-04-03T03:44:01;2.20;99.90
23783;DHT22;12071;50.850;4.446;2023-04-03T03:46:26;2.20;99.90
23783;DHT22;12071;50.850;4.446;2023-04-03T03:48:52;2.30;99.90
23783;DHT22;12071;50.850;4.446;2023-04-03T03:51:17;2.20;99.90
23783;DHT22;12071;50.850;4.446;2023-04-03T03:53:43;2.30;99.90
23783;DHT22;12071;50.850;4.446;2023-04-03T03:56:10;2.10;99.90
23783;DHT22;12071;50.850;4.446;2023-04-03T03:58:36;2.20;99.90
23783;DHT22;12071;50.850;4.446;2023-04-03T04:01:06;2.30;99.90
23783;DHT22;12071;50.850;4.446;2023-04-03T04:03:32;2.20;99.90
23783;DHT22;12071;50.850;4.446;2023-04-03T04:05:58;2.20;99.90
23783;DHT22;12071;50.850;4.446;2023-04-03T04:08:24;2.30;99.90
23783;DHT22;12071;50.850;4.446;2023-04-03T04:10:50;2.40;99.90
23783;DHT22;12071;50.850;4.446;2023-04-03T04:13:15;2.30;99.90
23783;DHT22;12071;50.850;4.446;2023-04-03T04:15:42;2.20;99.90
23783;DHT22;12071;50.850;4.446;2023-04-03T04:18:08;2.30;99.90
23783;DHT22;12071;50.850;4.446;2023-04-03T04:20:33;2.10;99.90
23783;DHT22;12071;50.850;4.446;2023-04-03T04:22:59;2.20;99.90
23783;DHT22;12071;50.850;4.446;2023-04-03T04:25:25;2.10;99.90
23783;DHT22;12071;50.850;4.446;2023-04-03T04:27:50;2.00;99.90
23783;DHT22;12071;50.850;4.446;2023-04-03T04:30:16;2.00;99.90
23783;DHT22;12071;50.850;4.446;2023-04-03T04:32:41;2.10;99.90
23783;DHT22;12071;50.850;4.446;2023-04-03T04:35:07;2.20;99.90
23783;DHT22;12071;50.850;4.446;2023-04-03T04:37:33;2.10;99.90
23783;DHT22;12071;50.850;4.446;2023-04-03T04:39:59;2.00;99.90
23783;DHT22;12071;50.850;4.446;2023-04-03T04:42:24;2.00;99.90
23783;DHT22;12071;50.850;4.446;2023-04-03T04:44:50;1.80;99.90
23783;DHT22;12071;50.850;4.446;2023-04-03T04:47:16;2.00;99.90
23783;DHT22;12071;50.850;4.446;2023-04-03T04:49:42;2.10;99.90
23783;DHT22;12071;50.850;4.446;2023-04-03T04:52:07;2.00;99.90
23783;DHT22;12071;50.850;4.446;2023-04-03T04:54:33;2.00;99.90
23783;DHT22;12071;50.850;4.446;2023-04-03T04:56:59;2.00;99.90
23783;DHT22;12071;50.850;4.446;2023-04-03T04:59:25;2.00;99.90
23783;DHT22;12071;50.850;4.446;2023-04-03T05:01:50;1.80;99.90
23783;DHT22;12071;50.850;4.446;2023-04-03T05:04:16;1.70;99.90
23783;DHT22;12071;50.850;4.446;2023-04-03T05:06:42;1.80;99.90
23783;DHT22;12071;50.850;4.446;2023-04-03T05:09:07;1.80;99.90
23783;DHT22;12071;50.850;4.446;2023-04-03T05:11:35;1.80;99.90
23783;DHT22;12071;50.850;4.446;2023-04-03T05:14:01;1.60;99.90
23783;DHT22;12071;50.850;4.446;2023-04-03T05:16:27;1.60;99.90
23783;DHT22;12071;50.850;4.446;2023-04-03T05:18:52;1.70;99.90
23783;DHT22;12071;50.850;4.446;2023-04-03T05:21:18;1.70;99.90
23783;DHT22;12071;50.850;4.446;2023-04-03T05:23:44;1.70;99.90
23783;DHT22;12071;50.850;4.446;2023-04-03T05:26:10;1.70;99.90
23783;DHT22;12071;50.850;4.446;2023-04-03T05:28:35;1.70;99.90
23783;DHT22;12071;50.850;4.446;2023-04-03T05:31:01;1.80;99.90
23783;DHT22;12071;50.850;4.446;2023-04-03T05:33:27;1.80;99.90
23783;DHT22;12071;50.850;4.446;2023-04-03T05:35:53;1.80;99.90
23783;DHT22;12071;50.850;4.446;2023-04-03T05:38:19;1.90;99.90
23783;DHT22;12071;50.850;4.446;2023-04-03T05:40:45;2.00;99.90
23783;DHT22;12071;50.850;4.446;2023-04-03T05:43:13;2.00;99.90
23783;DHT22;12071;50.850;4.446;2023-04-03T05:45:39;1.90;99.90
23783;DHT22;12071;50.850;4.446;2023-04-03T05:48:05;2.10;99.90
23783;DHT22;12071;50.850;4.446;2023-04-03T05:50:30;2.00;99.90
23783;DHT22;12071;50.850;4.446;2023-04-03T05:52:57;2.00;99.90
23783;DHT22;12071;50.850;4.446;2023-04-03T05:55:24;2.00;99.90
23783;DHT22;12071;50.850;4.446;2023-04-03T05:57:49;2.00;99.90
23783;DHT22;12071;50.850;4.446;2023-04-03T06:00:16;2.10;99.90
23783;DHT22;12071;50.850;4.446;2023-04-03T06:02:42;2.00;99.90
23783;DHT22;12071;50.850;4.446;2023-04-03T06:05:08;2.00;99.90
23783;DHT22;12071;50.850;4.446;2023-04-03T06:07:34;2.10;99.90
23783;DHT22;12071;50.850;4.446;2023-04-03T06:10:00;2.20;99.90
23783;DHT22;12071;50.850;4.446;2023-04-03T06:12:26;2.20;99.90
23783;DHT22;12071;50.850;4.446;2023-04-03T06:14:54;2.40;99.90
23783;DHT22;12071;50.850;4.446;2023-04-03T06:17:19;2.30;99.90
23783;DHT22;12071;50.850;4.446;2023-04-03T06:19:45;2.50;99.90
23783;DHT22;12071;50.850;4.446;2023-04-03T06:22:11;2.50;99.90
23783;DHT22;12071;50.850;4.446;2023-04-03T06:24:37;2.60;99.90
23783;DHT22;12071;50.850;4.446;2023-04-03T06:27:03;2.60;99.90
23783;DHT22;12071;50.850;4.446;2023-04-03T06:29:29;2.60;99.90
23783;DHT22;12071;50.850;4.446;2023-04-03T06:31:55;2.70;99.90
23783;DHT22;12071;50.850;4.446;2023-04-03T06:34:20;2.70;99.90
23783;DHT22;12071;50.850;4.446;2023-04-03T06:36:46;3.10;99.90
23783;DHT22;12071;50.850;4.446;2023-04-03T06:39:18;3.10;99.90
23783;DHT22;12071;50.850;4.446;2023-04-03T06:41:46;3.00;99.90
23783;DHT22;12071;50.850;4.446;2023-04-03T06:44:12;3.10;99.90
23783;DHT22;12071;50.850;4.446;2023-04-03T06:46:40;3.20;99.90
23783;DHT22;12071;50.850;4.446;2023-04-03T06:49:06;3.30;99.90
23783;DHT22;12071;50.850;4.446;2023-04-03T06:51:36;3.50;99.90
23783;DHT22;12071;50.850;4.446;2023-04-03T06:54:03;3.50;99.90
23783;DHT22;12071;50.850;4.446;2023-04-03T06:56:28;3.50;99.90
23783;DHT22;12071;50.850;4.446;2023-04-03T06:58:55;3.70;99.90
23783;DHT22;12071;50.850;4.446;2023-04-03T07:01:24;3.80;99.90
23783;DHT22;12071;50.850;4.446;2023-04-03T07:03:50;3.80;99.90
23783;DHT22;12071;50.850;4.446;2023-04-03T07:06:16;4.10;99.90
23783;DHT22;12071;50.850;4.446;2023-04-03T07:08:42;4.10;99.90
23783;DHT22;12071;50.850;4.446;2023-04-03T07:11:09;4.30;44.80
23783;DHT22;12071;50.850;4.446;2023-04-03T07:13:35;4.30;55.30
23783;DHT22;12071;50.850;4.446;2023-04-03T07:16:02;4.10;5.90
23783;DHT22;12071;50.850;4.446;2023-04-03T07:18:29;4.10;16.80
23783;DHT22;12071;50.850;4.446;2023-04-03T07:20:55;4.30;6.00
23783;DHT22;12071;50.850;4.446;2023-04-03T07:23:21;4.30;1.00
23783;DHT22;12071;50.850;4.446;2023-04-03T07:25:48;4.20;1.00
23783;DHT22;12071;50.850;4.446;2023-04-03T07:28:15;4.30;1.00
23783;DHT22;12071;50.850;4.446;2023-04-03T07:30:47;4.40;1.00
23783;DHT22;12071;50.850;4.446;2023-04-03T07:33:15;4.40;1.00
23783;DHT22;12071;50.850;4.446;2023-04-03T07:35:41;4.30;1.00
23783;DHT22;12071;50.850;4.446;2023-04-03T07:38:08;4.40;1.00
23783;DHT22;12071;50.850;4.446;2023-04-03T07:40:34;4.30;1.00
23783;DHT22;12071;50.850;4.446;2023-04-03T07:43:00;4.50;1.00
23783;DHT22;12071;50.850;4.446;2023-04-03T07:45:26;4.60;1.00
23783;DHT22;12071;50.850;4.446;2023-04-03T07:47:52;4.80;1.00
23783;DHT22;12071;50.850;4.446;2023-04-03T07:50:18;5.00;99.90
23783;DHT22;12071;50.850;4.446;2023-04-03T07:52:44;5.00;99.90
23783;DHT22;12071;50.850;4.446;2023-04-03T07:55:10;5.00;99.90
23783;DHT22;12071;50.850;4.446;2023-04-03T07:57:36;5.10;99.90
23783;DHT22;12071;50.850;4.446;2023-04-03T08:00:04;5.20;1.00
23783;DHT22;12071;50.850;4.446;2023-04-03T08:02:30;5.20;75.70
23783;DHT22;12071;50.850;4.446;2023-04-03T08:04:57;5.10;46.00
23783;DHT22;12071;50.850;4.446;2023-04-03T08:07:23;5.10;90.70
23783;DHT22;12071;50.850;4.446;2023-04-03T08:09:49;5.20;99.90
23783;DHT22;12071;50.850;4.446;2023-04-03T08:12:15;5.50;9.80
23783;DHT22;12071;50.850;4.446;2023-04-03T08:14:40;5.80;92.20
23783;DHT22;12071;50.850;4.446;2023-04-03T08:17:07;5.80;57.90
23783;DHT22;12071;50.850;4.446;2023-04-03T08:19:39;5.80;1.00
23783;DHT22;12071;50.850;4.446;2023-04-03T08:22:05;5.90;99.90
23783;DHT22;12071;50.850;4.446;2023-04-03T08:24:32;5.90;99.90
23783;DHT22;12071;50.850;4.446;2023-04-03T08:26:58;6.20;12.70
23783;DHT22;12071;50.850;4.446;2023-04-03T08:29:24;6.10;90.40
23783;DHT22;12071;50.850;4.446;2023-04-03T08:31:50;6.00;99.90
23783;DHT22;12071;50.850;4.446;2023-04-03T08:34:17;6.10;99.90
23783;DHT22;12071;50.850;4.446;2023-04-03T08:36:43;6.20;1.00
23783;DHT22;12071;50.850;4.446;2023-04-03T08:39:09;6.20;19.10
23783;DHT22;12071;50.850;4.446;2023-04-03T08:41:43;6.30;96.70
23783;DHT22;12071;50.850;4.446;2023-04-03T08:49:46;6.70;99.90
23783;DHT22;12071;50.850;4.446;2023-04-03T08:52:39;6.80;94.90
23783;DHT22;12071;50.850;4.446;2023-04-03T08:55:23;6.80;1.00
23783;DHT22;12071;50.850;4.446;2023-04-03T08:57:53;6.80;1.00
23783;DHT22;12071;50.850;4.446;2023-04-03T09:00:24;6.80;99.90
23783;DHT22;12071;50.850;4.446;2023-04-03T09:02:56;6.80;1.00
23783;DHT22;12071;50.850;4.446;2023-04-03T09:05:57;6.90;1.00
23783;DHT22;12071;50.850;4.446;2023-04-03T09:08:31;7.10;99.90
23783;DHT22;12071;50.850;4.446;2023-04-03T09:16:56;7.50;95.90
23783;DHT22;12071;50.850;4.446;2023-04-03T09:22:07;7.50;1.00
23783;DHT22;12071;50.850;4.446;2023-04-03T09:24:35;7.70;1.00
23783;DHT22;12071;50.850;4.446;2023-04-03T09:27:05;7.80;1.00
23783;DHT22;12071;50.850;4.446;2023-04-03T09:29:39;7.90;99.90
23783;DHT22;12071;50.850;4.446;2023-04-03T09:32:28;8.00;99.90
23783;DHT22;12071;50.850;4.446;2023-04-03T09:34:56;8.30;99.90
23783;DHT22;12071;50.850;4.446;2023-04-03T09:37:42;8.50;99.90
23783;DHT22;12071;50.850;4.446;2023-04-03T09:40:35;8.40;99.90
23783;DHT22;12071;50.850;4.446;2023-04-03T09:43:27;8.20;46.80
23783;DHT22;12071;50.850;4.446;2023-04-03T09:45:54;8.50;95.80
23783;DHT22;12071;50.850;4.446;2023-04-03T09:48:23;8.50;1.00
23783;DHT22;12071;50.850;4.446;2023-04-03T09:51:00;8.50;99.90
23783;DHT22;12071;50.850;4.446;2023-04-03T09:56:25;8.50;99.90
23783;DHT22;12071;50.850;4.446;2023-04-03T10:01:32;8.90;99.90
23783;DHT22;12071;50.850;4.446;2023-04-03T10:04:14;9.00;36.50
23783;DHT22;12071;50.850;4.446;2023-04-03T10:12:09;9.20;1.00
23783;DHT22;12071;50.850;4.446;2023-04-03T10:14:57;9.30;99.90
23783;DHT22;12071;50.850;4.446;2023-04-03T10:17:36;9.30;99.90
23783;DHT22;12071;50.850;4.446;2023-04-03T10:28:05;9.10;99.90
23783;DHT22;12071;50.850;4.446;2023-04-03T10:41:17;9.40;69.30
23783;DHT22;12071;50.850;4.446;2023-04-03T10:44:19;9.50;80.10
23783;DHT22;12071;50.850;4.446;2023-04-03T10:52:23;9.40;1.00
23783;DHT22;12071;50.850;4.446;2023-04-03T10:57:53;9.70;99.90
23783;DHT22;12071;50.850;4.446;2023-04-03T11:00:41;9.70;99.90
23783;DHT22;12071;50.850;4.446;2023-04-03T11:03:13;9.80;99.90
23783;DHT22;12071;50.850;4.446;2023-04-03T11:05:45;9.80;99.90
23783;DHT22;12071;50.850;4.446;2023-04-03T11:10:50;9.80;97.50
23783;DHT22;12071;50.850;4.446;2023-04-03T11:16:16;9.90;99.00
23783;DHT22;12071;50.850;4.446;2023-04-03T11:18:46;9.80;13.70
23783;DHT22;12071;50.850;4.446;2023-04-03T11:21:20;10.00;99.90
23783;DHT22;12071;50.850;4.446;2023-04-03T11:23:48;10.20;27.80
23783;DHT22;12071;50.850;4.446;2023-04-03T11:26:17;10.10;1.00
23783;DHT22;12071;50.850;4.446;2023-04-03T11:28:43;10.30;52.90
23783;DHT22;12071;50.850;4.446;2023-04-03T11:36:29;10.80;15.40
23783;DHT22;12071;50.850;4.446;2023-04-03T11:38:59;10.60;1.00
23783;DHT22;12071;50.850;4.446;2023-04-03T11:41:30;10.60;1.00
23783;DHT22;12071;50.850;4.446;2023-04-03T11:44:02;10.80;1.00
23783;DHT22;12071;50.850;4.446;2023-04-03T12:26:43;10.90;99.90
23783;DHT22;12071;50.850;4.446;2023-04-03T12:29:28;11.00;99.90
23783;DHT22;12071;50.850;4.446;2023-04-03T12:37:37;11.60;99.90
23783;DHT22;12071;50.850;4.446;2023-04-03T12:45:43;12.10;99.90
23783;DHT22;12071;50.850;4.446;2023-04-03T12:48:17;12.00;99.90
23783;DHT22;12071;50.850;4.446;2023-04-03T12:50:47;12.30;99.90
23783;DHT22;12071;50.850;4.446;2023-04-03T12:53:21;12.60;99.90
23783;DHT22;12071;50.850;4.446;2023-04-03T12:55:51;12.80;99.90
23783;DHT22;12071;50.850;4.446;2023-04-03T12:58:26;13.10;99.90
23783;DHT22;12071;50.850;4.446;2023-04-03T13:01:03;13.10;99.90
23783;DHT22;12071;50.850;4.446;2023-04-03T13:03:30;12.90;99.90
23783;DHT22;12071;50.850;4.446;2023-04-03T13:05:59;12.40;99.90
23783;DHT22;12071;50.850;4.446;2023-04-03T13:08:26;12.50;99.90
23783;DHT22;12071;50.850;4.446;2023-04-03T13:10:55;12.40;99.90
23783;DHT22;12071;50.850;4.446;2023-04-03T13:13:23;12.40;99.90
23783;DHT22;12071;50.850;4.446;2023-04-03T13:15:49;12.70;99.90
23783;DHT22;12071;50.850;4.446;2023-04-03T13:21:05;12.30;99.90
23783;DHT22;12071;50.850;4.446;2023-04-03T13:23:32;12.20;99.90
23783;DHT22;12071;50.850;4.446;2023-04-03T13:26:00;12.00;99.90
23783;DHT22;12071;50.850;4.446;2023-04-03T13:28:30;12.20;99.90
23783;DHT22;12071;50.850;4.446;2023-04-03T13:31:17;12.30;99.90
23783;DHT22;12071;50.850;4.446;2023-04-03T13:36:23;12.30;99.90
23783;DHT22;12071;50.850;4.446;2023-04-03T13:41:33;12.50;99.90
23783;DHT22;12071;50.850;4.446;2023-04-03T13:44:25;12.80;99.90
23783;DHT22;12071;50.850;4.446;2023-04-03T13:46:54;13.20;99.90
23783;DHT22;12071;50.850;4.446;2023-04-03T13:49:33;13.70;99.90
23783;DHT22;12071;50.850;4.446;2023-04-03T13:51:59;14.20;99.90
23783;DHT22;12071;50.850;4.446;2023-04-03T13:54:45;14.30;99.90
23783;DHT22;12071;50.850;4.446;2023-04-03T13:57:15;14.80;99.90
23783;DHT22;12071;50.850;4.446;2023-04-03T13:59:41;15.50;99.90
23783;DHT22;12071;50.850;4.446;2023-04-03T14:07:02;18.00;99.90
23783;DHT22;12071;50.850;4.446;2023-04-03T14:09:28;18.30;99.90
23783;DHT22;12071;50.850;4.446;2023-04-03T14:11:59;18.90;99.90
23783;DHT22;12071;50.850;4.446;2023-04-03T14:14:32;19.10;99.90
23783;DHT22;12071;50.850;4.446;2023-04-03T14:17:03;18.60;99.90
23783;DHT22;12071;50.850;4.446;2023-04-03T14:19:35;18.20;99.90
23783;DHT22;12071;50.850;4.446;2023-04-03T14:22:11;17.30;99.90
23783;DHT22;12071;50.850;4.446;2023-04-03T14:24:38;16.80;99.90
23783;DHT22;12071;50.850;4.446;2023-04-03T14:29:43;17.70;99.90
23783;DHT22;12071;50.850;4.446;2023-04-03T14:32:12;18.70;99.90
23783;DHT22;12071;50.850;4.446;2023-04-03T14:34:38;18.60;99.90
23783;DHT22;12071;50.850;4.446;2023-04-03T14:37:05;19.30;99.90
23783;DHT22;12071;50.850;4.446;2023-04-03T14:39:31;20.70;99.90
23783;DHT22;12071;50.850;4.446;2023-04-03T14:41:56;21.30;99.90
23783;DHT22;12071;50.850;4.446;2023-04-03T14:44:22;22.60;99.90
23783;DHT22;12071;50.850;4.446;2023-04-03T14:46:48;22.10;99.90
23783;DHT22;12071;50.850;4.446;2023-04-03T14:49:15;22.40;99.90
23783;DHT22;12071;50.850;4.446;2023-04-03T14:51:43;22.60;99.90
23783;DHT22;12071;50.850;4.446;2023-04-03T14:54:17;21.80;98.40
23783;DHT22;12071;50.850;4.446;2023-04-03T14:56:44;22.00;68.40
23783;DHT22;12071;50.850;4.446;2023-04-03T14:59:14;21.40;48.60
23783;DHT22;12071;50.850;4.446;2023-04-03T15:01:41;21.30;61.20
23783;DHT22;12071;50.850;4.446;2023-04-03T15:04:13;20.90;60.40
23783;DHT22;12071;50.850;4.446;2023-04-03T15:06:40;22.20;59.70
23783;DHT22;12071;50.850;4.446;2023-04-03T15:09:20;22.60;48.90
23783;DHT22;12071;50.850;4.446;2023-04-03T15:11:47;23.10;64.50
23783;DHT22;12071;50.850;4.446;2023-04-03T15:14:12;23.30;23.00
23783;DHT22;12071;50.850;4.446;2023-04-03T15:16:38;24.20;47.50
23783;DHT22;12071;50.850;4.446;2023-04-03T15:19:03;23.40;8.80
23783;DHT22;12071;50.850;4.446;2023-04-03T15:21:29;23.50;1.00
23783;DHT22;12071;50.850;4.446;2023-04-03T15:23:55;23.60;10.60
23783;DHT22;12071;50.850;4.446;2023-04-03T15:26:21;23.70;1.00
23783;DHT22;12071;50.850;4.446;2023-04-03T15:28:46;24.70;15.90
23783;DHT22;12071;50.850;4.446;2023-04-03T15:31:12;25.20;40.50
23783;DHT22;12071;50.850;4.446;2023-04-03T15:33:38;24.30;22.10
23783;DHT22;12071;50.850;4.446;2023-04-03T15:36:04;22.90;12.60
23783;DHT22;12071;50.850;4.446;2023-04-03T15:38:30;22.50;11.40
23783;DHT22;12071;50.850;4.446;2023-04-03T15:40:56;22.50;1.00
23783;DHT22;12071;50.850;4.446;2023-04-03T15:43:22;22.60;1.00
23783;DHT22;12071;50.850;4.446;2023-04-03T15:45:48;23.70;1.00
23783;DHT22;12071;50.850;4.446;2023-04-03T15:48:14;24.20;1.00
23783;DHT22;12071;50.850;4.446;2023-04-03T15:50:42;24.30;1.00
23783;DHT22;12071;50.850;4.446;2023-04-03T15:53:08;24.00;1.00
23783;DHT22;12071;50.850;4.446;2023-04-03T15:55:36;24.00;1.00
23783;DHT22;12071;50.850;4.446;2023-04-03T15:58:03;24.20;1.00
23783;DHT22;12071;50.850;4.446;2023-04-03T16:00:29;24.60;12.80
23783;DHT22;12071;50.850;4.446;2023-04-03T16:02:59;24.50;1.00
23783;DHT22;12071;50.850;4.446;2023-04-03T16:05:26;24.30;1.00
23783;DHT22;12071;50.850;4.446;2023-04-03T16:07:52;23.70;1.00
23783;DHT22;12071;50.850;4.446;2023-04-03T16:10:19;24.20;1.00
23783;DHT22;12071;50.850;4.446;2023-04-03T16:12:45;24.60;1.00
23783;DHT22;12071;50.850;4.446;2023-04-03T16:15:11;23.40;1.00
23783;DHT22;12071;50.850;4.446;2023-04-03T16:17:37;22.60;1.00
23783;DHT22;12071;50.850;4.446;2023-04-03T16:20:04;23.00;1.00
23783;DHT22;12071;50.850;4.446;2023-04-03T16:22:31;23.50;1.00
23783;DHT22;12071;50.850;4.446;2023-04-03T16:24:58;23.30;1.00
23783;DHT22;12071;50.850;4.446;2023-04-03T16:27:24;23.00;1.00
23783;DHT22;12071;50.850;4.446;2023-04-03T16:29:57;23.40;1.00
23783;DHT22;12071;50.850;4.446;2023-04-03T16:32:25;23.30;1.00
23783;DHT22;12071;50.850;4.446;2023-04-03T16:34:52;22.50;1.00
23783;DHT22;12071;50.850;4.446;2023-04-03T16:37:17;22.30;1.00
23783;DHT22;12071;50.850;4.446;2023-04-03T16:39:43;22.30;1.00
23783;DHT22;12071;50.850;4.446;2023-04-03T16:42:09;22.30;1.00
23783;DHT22;12071;50.850;4.446;2023-04-03T16:44:35;22.10;1.00
23783;DHT22;12071;50.850;4.446;2023-04-03T16:47:01;21.90;1.00
23783;DHT22;12071;50.850;4.446;2023-04-03T16:49:27;21.80;1.00
23783;DHT22;12071;50.850;4.446;2023-04-03T16:51:58;22.00;1.00
23783;DHT22;12071;50.850;4.446;2023-04-03T16:54:24;21.90;1.00
23783;DHT22;12071;50.850;4.446;2023-04-03T16:56:50;21.60;1.00
23783;DHT22;12071;50.850;4.446;2023-04-03T16:59:16;21.30;1.00
23783;DHT22;12071;50.850;4.446;2023-04-03T17:01:42;20.90;1.00
23783;DHT22;12071;50.850;4.446;2023-04-03T17:04:07;20.50;1.00
23783;DHT22;12071;50.850;4.446;2023-04-03T17:06:33;19.90;1.00
23783;DHT22;12071;50.850;4.446;2023-04-03T17:08:58;19.90;1.00
23783;DHT22;12071;50.850;4.446;2023-04-03T17:11:24;19.60;1.00
23783;DHT22;12071;50.850;4.446;2023-04-03T17:13:50;19.80;1.00
23783;DHT22;12071;50.850;4.446;2023-04-03T17:16:16;19.90;1.00
23783;DHT22;12071;50.850;4.446;2023-04-03T17:18:42;19.60;1.00
23783;DHT22;12071;50.850;4.446;2023-04-03T17:21:08;18.50;1.00
23783;DHT22;12071;50.850;4.446;2023-04-03T17:23:35;17.40;1.00
23783;DHT22;12071;50.850;4.446;2023-04-03T17:26:03;16.30;1.00
23783;DHT22;12071;50.850;4.446;2023-04-03T17:28:29;15.60;1.00
23783;DHT22;12071;50.850;4.446;2023-04-03T17:30:59;14.40;1.00
23783;DHT22;12071;50.850;4.446;2023-04-03T17:33:26;13.70;1.00
23783;DHT22;12071;50.850;4.446;2023-04-03T17:35:56;13.50;1.00
23783;DHT22;12071;50.850;4.446;2023-04-03T17:38:22;13.30;1.00
23783;DHT22;12071;50.850;4.446;2023-04-03T17:40:47;13.00;1.00
23783;DHT22;12071;50.850;4.446;2023-04-03T17:43:13;12.80;1.00
23783;DHT22;12071;50.850;4.446;2023-04-03T17:45:39;12.50;1.00
23783;DHT22;12071;50.850;4.446;2023-04-03T17:48:05;12.40;1.00
23783;DHT22;12071;50.850;4.446;2023-04-03T17:50:30;12.20;1.00
23783;DHT22;12071;50.850;4.446;2023-04-03T17:52:56;11.80;1.00
23783;DHT22;12071;50.850;4.446;2023-04-03T17:55:22;11.80;1.00
23783;DHT22;12071;50.850;4.446;2023-04-03T17:57:48;11.70;1.00
23783;DHT22;12071;50.850;4.446;2023-04-03T18:00:14;11.80;1.00
23783;DHT22;12071;50.850;4.446;2023-04-03T18:02:42;11.60;1.00
23783;DHT22;12071;50.850;4.446;2023-04-03T18:05:09;11.60;1.00
23783;DHT22;12071;50.850;4.446;2023-04-03T18:07:36;11.50;1.00